sensor_id;sensor_type;location;lat;lon;timestamp;P1;durP1;ratioP1;P2;durP2;ratioP2
6850;SDS011;3464;42.728;23.296;2022-09-04T00:03:19;22.03;;;12.17;;
6850;SDS011;3464;42.728;23.296;2022-09-04T00:05:19;25.00;;;13.43;;
6850;SDS011;3464;42.728;23.296;2022-09-04T00:08:04;20.77;;;13.13;;
6850;SDS011;3464;42.728;23.296;2022-09-04T00:10:50;22.27;;;13.80;;
6850;SDS011;3464;42.728;23.296;2022-09-04T00:13:17;22.43;;;12.53;;
6850;SDS011;3464;42.728;23.296;2022-09-04T00:15:49;22.47;;;12.50;;
6850;SDS011;3464;42.728;23.296;2022-09-04T00:18:21;22.90;;;13.07;;
6850;SDS011;3464;42.728;23.296;2022-09-04T00:21:04;26.50;;;12.90;;
6850;SDS011;3464;42.728;23.296;2022-09-04T00:23:36;24.50;;;13.00;;
6850;SDS011;3464;42.728;23.296;2022-09-04T00:26:02;23.60;;;13.23;;
6850;SDS011;3464;42.728;23.296;2022-09-04T00:28:31;29.90;;;13.77;;
6850;SDS011;3464;42.728;23.296;2022-09-04T00:31:01;24.43;;;12.80;;
6850;SDS011;3464;42.728;23.296;2022-09-04T00:33:29;22.40;;;12.27;;
6850;SDS011;3464;42.728;23.296;2022-09-04T00:35:55;28.73;;;13.10;;
6850;SDS011;3464;42.728;23.296;2022-09-04T00:38:31;24.40;;;11.87;;
6850;SDS011;3464;42.728;23.296;2022-09-04T00:40:55;22.73;;;11.83;;
6850;SDS011;3464;42.728;23.296;2022-09-04T00:44:04;23.97;;;12.80;;
6850;SDS011;3464;42.728;23.296;2022-09-04T00:46:24;22.33;;;12.00;;
6850;SDS011;3464;42.728;23.296;2022-09-04T00:48:58;24.67;;;12.07;;
6850;SDS011;3464;42.728;23.296;2022-09-04T00:51:42;23.37;;;12.87;;
6850;SDS011;3464;42.728;23.296;2022-09-04T00:54:26;22.77;;;12.20;;
6850;SDS011;3464;42.728;23.296;2022-09-04T00:56:54;21.70;;;11.90;;
6850;SDS011;3464;42.728;23.296;2022-09-04T01:02:03;21.80;;;11.50;;
6850;SDS011;3464;42.728;23.296;2022-09-04T01:04:34;23.23;;;12.07;;
6850;SDS011;3464;42.728;23.296;2022-09-04T01:07:18;22.97;;;12.17;;
6850;SDS011;3464;42.728;23.296;2022-09-04T01:09:49;24.33;;;12.03;;
6850;SDS011;3464;42.728;23.296;2022-09-04T01:12:25;21.70;;;12.30;;
6850;SDS011;3464;42.728;23.296;2022-09-04T01:15:07;27.03;;;12.10;;
6850;SDS011;3464;42.728;23.296;2022-09-04T01:17:51;23.60;;;13.50;;
6850;SDS011;3464;42.728;23.296;2022-09-04T01:20:51;22.40;;;12.40;;
6850;SDS011;3464;42.728;23.296;2022-09-04T01:23:29;23.90;;;11.67;;
6850;SDS011;3464;42.728;23.296;2022-09-04T01:25:59;21.87;;;12.00;;
6850;SDS011;3464;42.728;23.296;2022-09-04T01:28:34;24.73;;;12.23;;
6850;SDS011;3464;42.728;23.296;2022-09-04T01:36:35;20.10;;;12.03;;
6850;SDS011;3464;42.728;23.296;2022-09-04T01:39:22;21.20;;;12.10;;
6850;SDS011;3464;42.728;23.296;2022-09-04T01:41:54;22.77;;;12.37;;
6850;SDS011;3464;42.728;23.296;2022-09-04T01:44:18;24.57;;;13.00;;
6850;SDS011;3464;42.728;23.296;2022-09-04T01:46:49;28.20;;;12.13;;
6850;SDS011;3464;42.728;23.296;2022-09-04T01:49:16;20.97;;;11.70;;
6850;SDS011;3464;42.728;23.296;2022-09-04T01:51:55;24.50;;;13.40;;
6850;SDS011;3464;42.728;23.296;2022-09-04T01:54:28;23.90;;;12.90;;
6850;SDS011;3464;42.728;23.296;2022-09-04T01:59:41;25.10;;;12.70;;
6850;SDS011;3464;42.728;23.296;2022-09-04T02:02:14;24.33;;;12.00;;
6850;SDS011;3464;42.728;23.296;2022-09-04T02:04:41;25.57;;;12.47;;
6850;SDS011;3464;42.728;23.296;2022-09-04T02:10:24;25.57;;;13.70;;
6850;SDS011;3464;42.728;23.296;2022-09-04T02:13:12;23.33;;;13.23;;
6850;SDS011;3464;42.728;23.296;2022-09-04T02:15:47;22.73;;;13.70;;
6850;SDS011;3464;42.728;23.296;2022-09-04T02:18:31;23.60;;;12.27;;
6850;SDS011;3464;42.728;23.296;2022-09-04T02:21:00;22.97;;;13.20;;
6850;SDS011;3464;42.728;23.296;2022-09-04T02:23:31;24.30;;;14.50;;
6850;SDS011;3464;42.728;23.296;2022-09-04T02:28:46;23.37;;;13.20;;
6850;SDS011;3464;42.728;23.296;2022-09-04T02:34:00;22.50;;;13.50;;
6850;SDS011;3464;42.728;23.296;2022-09-04T02:39:07;23.47;;;13.03;;
6850;SDS011;3464;42.728;23.296;2022-09-04T02:41:40;28.10;;;14.60;;
6850;SDS011;3464;42.728;23.296;2022-09-04T02:44:26;27.37;;;14.90;;
6850;SDS011;3464;42.728;23.296;2022-09-04T02:47:00;24.17;;;13.10;;
6850;SDS011;3464;42.728;23.296;2022-09-04T02:52:23;21.10;;;11.50;;
6850;SDS011;3464;42.728;23.296;2022-09-04T02:54:54;22.53;;;12.87;;
6850;SDS011;3464;42.728;23.296;2022-09-04T02:57:36;144.23;;;20.07;;
6850;SDS011;3464;42.728;23.296;2022-09-04T03:00:05;34.77;;;16.80;;
6850;SDS011;3464;42.728;23.296;2022-09-04T03:02:35;30.30;;;15.53;;
6850;SDS011;3464;42.728;23.296;2022-09-04T03:05:03;31.43;;;14.30;;
6850;SDS011;3464;42.728;23.296;2022-09-04T03:07:30;26.87;;;14.30;;
6850;SDS011;3464;42.728;23.296;2022-09-04T03:09:59;27.87;;;14.10;;
6850;SDS011;3464;42.728;23.296;2022-09-04T03:12:31;26.40;;;14.53;;
6850;SDS011;3464;42.728;23.296;2022-09-04T03:15:12;28.83;;;15.10;;
6850;SDS011;3464;42.728;23.296;2022-09-04T03:20:25;25.20;;;13.23;;
6850;SDS011;3464;42.728;23.296;2022-09-04T03:23:08;61.70;;;16.73;;
6850;SDS011;3464;42.728;23.296;2022-09-04T03:25:41;47.60;;;15.80;;
6850;SDS011;3464;42.728;23.296;2022-09-04T03:28:06;105.37;;;18.20;;
6850;SDS011;3464;42.728;23.296;2022-09-04T03:30:31;38.60;;;16.00;;
6850;SDS011;3464;42.728;23.296;2022-09-04T03:33:03;62.23;;;17.13;;
6850;SDS011;3464;42.728;23.296;2022-09-04T03:35:49;54.40;;;15.13;;
6850;SDS011;3464;42.728;23.296;2022-09-04T03:38:21;25.40;;;14.80;;
6850;SDS011;3464;42.728;23.296;2022-09-04T03:46:36;47.77;;;15.57;;
6850;SDS011;3464;42.728;23.296;2022-09-04T03:51:36;30.10;;;14.90;;
6850;SDS011;3464;42.728;23.296;2022-09-04T03:54:05;25.80;;;14.10;;
6850;SDS011;3464;42.728;23.296;2022-09-04T03:59:32;31.00;;;14.53;;
6850;SDS011;3464;42.728;23.296;2022-09-04T04:02:04;24.57;;;14.23;;
6850;SDS011;3464;42.728;23.296;2022-09-04T04:04:36;27.33;;;15.77;;
6850;SDS011;3464;42.728;23.296;2022-09-04T04:07:23;32.47;;;15.30;;
6850;SDS011;3464;42.728;23.296;2022-09-04T04:09:57;25.70;;;14.87;;
6850;SDS011;3464;42.728;23.296;2022-09-04T04:12:35;26.33;;;14.80;;
6850;SDS011;3464;42.728;23.296;2022-09-04T04:18:27;26.00;;;15.17;;
6850;SDS011;3464;42.728;23.296;2022-09-04T04:20:40;30.03;;;15.77;;
6850;SDS011;3464;42.728;23.296;2022-09-04T04:26:18;31.13;;;15.63;;
6850;SDS011;3464;42.728;23.296;2022-09-04T04:29:07;27.37;;;15.00;;
6850;SDS011;3464;42.728;23.296;2022-09-04T04:31:54;39.17;;;14.13;;
6850;SDS011;3464;42.728;23.296;2022-09-04T04:34:39;23.77;;;14.47;;
6850;SDS011;3464;42.728;23.296;2022-09-04T04:37:10;23.17;;;13.53;;
6850;SDS011;3464;42.728;23.296;2022-09-04T04:39:38;22.50;;;12.83;;
6850;SDS011;3464;42.728;23.296;2022-09-04T04:43:18;22.57;;;13.73;;
6850;SDS011;3464;42.728;23.296;2022-09-04T04:48:01;25.73;;;14.37;;
6850;SDS011;3464;42.728;23.296;2022-09-04T04:51:01;27.43;;;13.70;;
6850;SDS011;3464;42.728;23.296;2022-09-04T04:53:48;23.30;;;12.67;;
6850;SDS011;3464;42.728;23.296;2022-09-04T04:56:18;22.37;;;13.63;;
6850;SDS011;3464;42.728;23.296;2022-09-04T04:59:04;21.43;;;12.33;;
6850;SDS011;3464;42.728;23.296;2022-09-04T05:01:39;25.63;;;13.17;;
6850;SDS011;3464;42.728;23.296;2022-09-04T05:04:09;26.57;;;14.90;;
6850;SDS011;3464;42.728;23.296;2022-09-04T05:06:38;33.30;;;18.90;;
6850;SDS011;3464;42.728;23.296;2022-09-04T05:09:12;32.43;;;20.13;;
6850;SDS011;3464;42.728;23.296;2022-09-04T05:14:36;32.60;;;20.80;;
6850;SDS011;3464;42.728;23.296;2022-09-04T05:17:10;35.20;;;21.20;;
6850;SDS011;3464;42.728;23.296;2022-09-04T05:19:51;31.43;;;20.30;;
6850;SDS011;3464;42.728;23.296;2022-09-04T05:22:40;25.33;;;16.23;;
6850;SDS011;3464;42.728;23.296;2022-09-04T05:25:08;33.00;;;22.47;;
6850;SDS011;3464;42.728;23.296;2022-09-04T05:27:40;25.93;;;18.80;;
6850;SDS011;3464;42.728;23.296;2022-09-04T05:30:07;25.40;;;17.23;;
6850;SDS011;3464;42.728;23.296;2022-09-04T05:32:39;26.10;;;18.40;;
6850;SDS011;3464;42.728;23.296;2022-09-04T05:35:38;25.70;;;18.00;;
6850;SDS011;3464;42.728;23.296;2022-09-04T05:38:07;35.03;;;19.50;;
6850;SDS011;3464;42.728;23.296;2022-09-04T05:40:45;32.13;;;20.13;;
6850;SDS011;3464;42.728;23.296;2022-09-04T05:43:30;30.80;;;20.73;;
6850;SDS011;3464;42.728;23.296;2022-09-04T05:46:05;33.80;;;22.60;;
6850;SDS011;3464;42.728;23.296;2022-09-04T05:48:39;27.70;;;19.97;;
6850;SDS011;3464;42.728;23.296;2022-09-04T05:51:52;27.80;;;18.30;;
6850;SDS011;3464;42.728;23.296;2022-09-04T05:54:11;22.53;;;14.07;;
6850;SDS011;3464;42.728;23.296;2022-09-04T05:56:39;23.13;;;11.43;;
6850;SDS011;3464;42.728;23.296;2022-09-04T05:59:10;19.00;;;8.60;;
6850;SDS011;3464;42.728;23.296;2022-09-04T06:01:56;14.37;;;7.30;;
6850;SDS011;3464;42.728;23.296;2022-09-04T06:04:43;13.40;;;6.10;;
6850;SDS011;3464;42.728;23.296;2022-09-04T06:07:11;15.10;;;5.90;;
6850;SDS011;3464;42.728;23.296;2022-09-04T06:09:57;12.40;;;6.00;;
6850;SDS011;3464;42.728;23.296;2022-09-04T06:17:54;19.93;;;12.27;;
6850;SDS011;3464;42.728;23.296;2022-09-04T06:20:27;18.90;;;12.63;;
6850;SDS011;3464;42.728;23.296;2022-09-04T06:23:26;18.50;;;11.23;;
6850;SDS011;3464;42.728;23.296;2022-09-04T06:25:39;22.97;;;15.03;;
6850;SDS011;3464;42.728;23.296;2022-09-04T06:30:44;19.70;;;11.00;;
6850;SDS011;3464;42.728;23.296;2022-09-04T06:33:22;25.83;;;12.37;;
6850;SDS011;3464;42.728;23.296;2022-09-04T06:35:57;21.40;;;13.10;;
6850;SDS011;3464;42.728;23.296;2022-09-04T06:38:31;23.43;;;13.60;;
6850;SDS011;3464;42.728;23.296;2022-09-04T06:41:25;22.73;;;13.67;;
6850;SDS011;3464;42.728;23.296;2022-09-04T06:44:04;22.93;;;14.40;;
6850;SDS011;3464;42.728;23.296;2022-09-04T06:46:39;24.83;;;14.40;;
6850;SDS011;3464;42.728;23.296;2022-09-04T06:49:09;24.33;;;15.50;;
6850;SDS011;3464;42.728;23.296;2022-09-04T06:52:07;24.43;;;15.43;;
6850;SDS011;3464;42.728;23.296;2022-09-04T06:57:18;23.40;;;14.90;;
6850;SDS011;3464;42.728;23.296;2022-09-04T06:59:47;23.90;;;14.63;;
6850;SDS011;3464;42.728;23.296;2022-09-04T07:02:26;22.63;;;14.70;;
6850;SDS011;3464;42.728;23.296;2022-09-04T07:07:48;34.13;;;17.27;;
6850;SDS011;3464;42.728;23.296;2022-09-04T07:10:15;27.73;;;17.40;;
6850;SDS011;3464;42.728;23.296;2022-09-04T07:12:46;29.60;;;17.80;;
6850;SDS011;3464;42.728;23.296;2022-09-04T07:21:03;31.53;;;19.50;;
6850;SDS011;3464;42.728;23.296;2022-09-04T07:23:26;31.50;;;19.70;;
6850;SDS011;3464;42.728;23.296;2022-09-04T07:26:10;33.53;;;21.20;;
6850;SDS011;3464;42.728;23.296;2022-09-04T07:31:28;33.77;;;21.70;;
6850;SDS011;3464;42.728;23.296;2022-09-04T07:36:44;37.97;;;23.13;;
6850;SDS011;3464;42.728;23.296;2022-09-04T07:39:27;39.03;;;25.00;;
6850;SDS011;3464;42.728;23.296;2022-09-04T07:42:05;36.27;;;24.63;;
6850;SDS011;3464;42.728;23.296;2022-09-04T07:44:38;38.10;;;23.40;;
6850;SDS011;3464;42.728;23.296;2022-09-04T07:47:08;36.97;;;24.83;;
6850;SDS011;3464;42.728;23.296;2022-09-04T07:49:54;36.37;;;23.10;;
6850;SDS011;3464;42.728;23.296;2022-09-04T07:52:40;32.17;;;22.50;;
6850;SDS011;3464;42.728;23.296;2022-09-04T07:58:06;29.97;;;21.67;;
6850;SDS011;3464;42.728;23.296;2022-09-04T08:01:00;32.27;;;22.40;;
6850;SDS011;3464;42.728;23.296;2022-09-04T08:03:30;30.10;;;19.93;;
6850;SDS011;3464;42.728;23.296;2022-09-04T08:06:13;31.53;;;20.10;;
6850;SDS011;3464;42.728;23.296;2022-09-04T08:08:47;28.33;;;19.40;;
6850;SDS011;3464;42.728;23.296;2022-09-04T08:11:24;36.17;;;19.70;;
6850;SDS011;3464;42.728;23.296;2022-09-04T08:14:03;29.43;;;19.40;;
6850;SDS011;3464;42.728;23.296;2022-09-04T08:16:35;32.13;;;18.77;;
6850;SDS011;3464;42.728;23.296;2022-09-04T08:19:11;28.47;;;18.20;;
6850;SDS011;3464;42.728;23.296;2022-09-04T08:21:48;35.80;;;19.30;;
6850;SDS011;3464;42.728;23.296;2022-09-04T08:27:08;28.97;;;17.77;;
6850;SDS011;3464;42.728;23.296;2022-09-04T08:29:41;26.57;;;16.27;;
6850;SDS011;3464;42.728;23.296;2022-09-04T08:32:10;23.73;;;16.20;;
6850;SDS011;3464;42.728;23.296;2022-09-04T08:34:44;30.37;;;17.57;;
6850;SDS011;3464;42.728;23.296;2022-09-04T08:42:49;22.83;;;14.67;;
6850;SDS011;3464;42.728;23.296;2022-09-04T08:53:24;20.00;;;12.73;;
6850;SDS011;3464;42.728;23.296;2022-09-04T08:55:52;21.53;;;14.40;;
6850;SDS011;3464;42.728;23.296;2022-09-04T09:01:24;20.43;;;13.50;;
6850;SDS011;3464;42.728;23.296;2022-09-04T09:04:00;24.23;;;12.20;;
6850;SDS011;3464;42.728;23.296;2022-09-04T09:06:33;18.97;;;11.27;;
6850;SDS011;3464;42.728;23.296;2022-09-04T09:17:15;17.70;;;8.07;;
6850;SDS011;3464;42.728;23.296;2022-09-04T09:19:58;16.63;;;8.73;;
6850;SDS011;3464;42.728;23.296;2022-09-04T09:22:34;18.37;;;8.40;;
6850;SDS011;3464;42.728;23.296;2022-09-04T09:25:19;16.17;;;7.50;;
6850;SDS011;3464;42.728;23.296;2022-09-04T09:31:35;13.20;;;6.90;;
6850;SDS011;3464;42.728;23.296;2022-09-04T09:36:40;17.90;;;8.13;;
6850;SDS011;3464;42.728;23.296;2022-09-04T09:41:54;15.33;;;8.73;;
6850;SDS011;3464;42.728;23.296;2022-09-04T09:44:25;14.77;;;8.20;;
6850;SDS011;3464;42.728;23.296;2022-09-04T09:47:09;14.33;;;7.20;;
6850;SDS011;3464;42.728;23.296;2022-09-04T09:52:47;15.10;;;6.40;;
6850;SDS011;3464;42.728;23.296;2022-09-04T09:55:22;13.30;;;5.80;;
6850;SDS011;3464;42.728;23.296;2022-09-04T09:58:22;14.03;;;5.73;;
6850;SDS011;3464;42.728;23.296;2022-09-04T10:08:57;15.70;;;7.10;;
6850;SDS011;3464;42.728;23.296;2022-09-04T10:14:40;14.37;;;6.23;;
6850;SDS011;3464;42.728;23.296;2022-09-04T10:17:12;14.30;;;6.47;;
6850;SDS011;3464;42.728;23.296;2022-09-04T10:20:51;13.73;;;5.93;;
6850;SDS011;3464;42.728;23.296;2022-09-04T10:22:49;13.90;;;6.20;;
6850;SDS011;3464;42.728;23.296;2022-09-04T10:28:19;15.53;;;6.73;;
6850;SDS011;3464;42.728;23.296;2022-09-04T10:33:31;13.17;;;6.67;;
6850;SDS011;3464;42.728;23.296;2022-09-04T10:36:18;14.40;;;6.90;;
6850;SDS011;3464;42.728;23.296;2022-09-04T10:39:01;11.70;;;5.90;;
6850;SDS011;3464;42.728;23.296;2022-09-04T10:44:25;13.17;;;6.30;;
6850;SDS011;3464;42.728;23.296;2022-09-04T10:47:01;13.93;;;5.77;;
6850;SDS011;3464;42.728;23.296;2022-09-04T10:49:32;13.40;;;6.23;;
6850;SDS011;3464;42.728;23.296;2022-09-04T10:52:05;13.93;;;6.30;;
6850;SDS011;3464;42.728;23.296;2022-09-04T10:54:58;13.17;;;6.03;;
6850;SDS011;3464;42.728;23.296;2022-09-04T10:57:42;14.37;;;6.70;;
6850;SDS011;3464;42.728;23.296;2022-09-04T11:00:12;13.20;;;6.03;;
6850;SDS011;3464;42.728;23.296;2022-09-04T11:05:36;12.57;;;5.93;;
6850;SDS011;3464;42.728;23.296;2022-09-04T11:08:07;13.83;;;6.30;;
6850;SDS011;3464;42.728;23.296;2022-09-04T11:10:59;12.77;;;6.03;;
6850;SDS011;3464;42.728;23.296;2022-09-04T11:13:35;13.07;;;6.10;;
6850;SDS011;3464;42.728;23.296;2022-09-04T11:16:09;11.53;;;5.67;;
6850;SDS011;3464;42.728;23.296;2022-09-04T11:21:48;12.53;;;6.23;;
6850;SDS011;3464;42.728;23.296;2022-09-04T11:24:29;13.60;;;6.60;;
6850;SDS011;3464;42.728;23.296;2022-09-04T11:27:16;12.13;;;6.20;;
6850;SDS011;3464;42.728;23.296;2022-09-04T11:30:19;16.50;;;7.00;;
6850;SDS011;3464;42.728;23.296;2022-09-04T11:32:35;13.10;;;6.30;;
6850;SDS011;3464;42.728;23.296;2022-09-04T11:39:06;20.53;;;6.27;;
6850;SDS011;3464;42.728;23.296;2022-09-04T11:43:41;17.20;;;5.87;;
6850;SDS011;3464;42.728;23.296;2022-09-04T11:46:24;14.50;;;5.50;;
6850;SDS011;3464;42.728;23.296;2022-09-04T11:49:03;12.43;;;5.03;;
6850;SDS011;3464;42.728;23.296;2022-09-04T11:51:41;11.60;;;5.30;;
6850;SDS011;3464;42.728;23.296;2022-09-04T11:54:22;10.73;;;4.57;;
6850;SDS011;3464;42.728;23.296;2022-09-04T11:56:58;11.37;;;4.73;;
6850;SDS011;3464;42.728;23.296;2022-09-04T12:00:15;13.83;;;4.93;;
6850;SDS011;3464;42.728;23.296;2022-09-04T12:02:35;10.17;;;4.23;;
6850;SDS011;3464;42.728;23.296;2022-09-04T12:05:20;11.43;;;4.53;;
6850;SDS011;3464;42.728;23.296;2022-09-04T12:08:10;12.57;;;4.40;;
6850;SDS011;3464;42.728;23.296;2022-09-04T12:10:41;10.13;;;3.70;;
6850;SDS011;3464;42.728;23.296;2022-09-04T12:13:27;9.80;;;4.07;;
6850;SDS011;3464;42.728;23.296;2022-09-04T12:19:02;9.90;;;4.20;;
6850;SDS011;3464;42.728;23.296;2022-09-04T12:21:46;12.87;;;4.33;;
6850;SDS011;3464;42.728;23.296;2022-09-04T12:27:02;9.83;;;3.60;;
6850;SDS011;3464;42.728;23.296;2022-09-04T12:32:50;10.33;;;3.87;;
6850;SDS011;3464;42.728;23.296;2022-09-04T12:35:30;13.50;;;4.30;;
6850;SDS011;3464;42.728;23.296;2022-09-04T12:46:23;11.10;;;3.60;;
6850;SDS011;3464;42.728;23.296;2022-09-04T12:49:02;10.33;;;3.30;;
6850;SDS011;3464;42.728;23.296;2022-09-04T12:51:31;13.30;;;5.30;;
6850;SDS011;3464;42.728;23.296;2022-09-04T12:54:08;10.30;;;3.47;;
6850;SDS011;3464;42.728;23.296;2022-09-04T12:56:44;12.20;;;4.50;;
6850;SDS011;3464;42.728;23.296;2022-09-04T12:59:30;11.20;;;4.50;;
6850;SDS011;3464;42.728;23.296;2022-09-04T13:02:05;15.90;;;6.57;;
6850;SDS011;3464;42.728;23.296;2022-09-04T13:04:51;15.80;;;3.67;;
6850;SDS011;3464;42.728;23.296;2022-09-04T13:07:22;12.83;;;4.00;;
6850;SDS011;3464;42.728;23.296;2022-09-04T13:09:53;16.37;;;6.40;;
6850;SDS011;3464;42.728;23.296;2022-09-04T13:12:42;12.83;;;4.30;;
6850;SDS011;3464;42.728;23.296;2022-09-04T13:20:43;11.77;;;4.20;;
6850;SDS011;3464;42.728;23.296;2022-09-04T13:23:16;15.30;;;3.57;;
6850;SDS011;3464;42.728;23.296;2022-09-04T13:28:50;9.33;;;3.40;;
6850;SDS011;3464;42.728;23.296;2022-09-04T13:31:51;10.80;;;3.90;;
6850;SDS011;3464;42.728;23.296;2022-09-04T13:34:27;12.33;;;3.70;;
6850;SDS011;3464;42.728;23.296;2022-09-04T13:37:05;11.70;;;3.67;;
6850;SDS011;3464;42.728;23.296;2022-09-04T13:39:44;10.27;;;3.63;;
6850;SDS011;3464;42.728;23.296;2022-09-04T13:45:28;10.73;;;3.90;;
6850;SDS011;3464;42.728;23.296;2022-09-04T13:48:00;9.40;;;3.60;;
6850;SDS011;3464;42.728;23.296;2022-09-04T13:50:42;15.63;;;3.90;;
6850;SDS011;3464;42.728;23.296;2022-09-04T13:53:17;10.33;;;3.50;;
6850;SDS011;3464;42.728;23.296;2022-09-04T13:55:46;10.80;;;3.87;;
6850;SDS011;3464;42.728;23.296;2022-09-04T13:58:15;11.23;;;4.30;;
6850;SDS011;3464;42.728;23.296;2022-09-04T14:00:42;9.80;;;3.60;;
6850;SDS011;3464;42.728;23.296;2022-09-04T14:03:09;10.73;;;3.37;;
6850;SDS011;3464;42.728;23.296;2022-09-04T14:05:34;12.83;;;3.73;;
6850;SDS011;3464;42.728;23.296;2022-09-04T14:08:01;11.77;;;3.93;;
6850;SDS011;3464;42.728;23.296;2022-09-04T14:10:38;11.10;;;3.30;;
6850;SDS011;3464;42.728;23.296;2022-09-04T14:13:27;10.10;;;3.90;;
6850;SDS011;3464;42.728;23.296;2022-09-04T14:15:56;11.10;;;4.30;;
6850;SDS011;3464;42.728;23.296;2022-09-04T14:18:49;10.40;;;3.33;;
6850;SDS011;3464;42.728;23.296;2022-09-04T14:21:21;12.43;;;3.83;;
6850;SDS011;3464;42.728;23.296;2022-09-04T14:24:05;9.80;;;3.60;;
6850;SDS011;3464;42.728;23.296;2022-09-04T14:26:48;9.40;;;3.47;;
6850;SDS011;3464;42.728;23.296;2022-09-04T14:29:44;14.00;;;3.80;;
6850;SDS011;3464;42.728;23.296;2022-09-04T14:32:15;12.40;;;4.17;;
6850;SDS011;3464;42.728;23.296;2022-09-04T14:35:07;9.33;;;3.40;;
6850;SDS011;3464;42.728;23.296;2022-09-04T14:37:38;11.30;;;3.60;;
6850;SDS011;3464;42.728;23.296;2022-09-04T14:40:08;9.87;;;3.60;;
6850;SDS011;3464;42.728;23.296;2022-09-04T14:42:45;12.80;;;3.60;;
6850;SDS011;3464;42.728;23.296;2022-09-04T14:48:02;10.57;;;3.90;;
6850;SDS011;3464;42.728;23.296;2022-09-04T14:50:29;10.27;;;4.10;;
6850;SDS011;3464;42.728;23.296;2022-09-04T14:52:56;11.87;;;3.97;;
6850;SDS011;3464;42.728;23.296;2022-09-04T14:55:27;11.50;;;3.73;;
6850;SDS011;3464;42.728;23.296;2022-09-04T14:57:55;10.70;;;3.50;;
6850;SDS011;3464;42.728;23.296;2022-09-04T15:00:51;8.97;;;3.20;;
6850;SDS011;3464;42.728;23.296;2022-09-04T15:03:10;14.17;;;3.70;;
6850;SDS011;3464;42.728;23.296;2022-09-04T15:05:36;14.80;;;3.70;;
6850;SDS011;3464;42.728;23.296;2022-09-04T15:08:06;11.27;;;3.77;;
6850;SDS011;3464;42.728;23.296;2022-09-04T15:10:41;10.77;;;4.03;;
6850;SDS011;3464;42.728;23.296;2022-09-04T15:15:51;10.10;;;3.27;;
6850;SDS011;3464;42.728;23.296;2022-09-04T15:18:19;10.80;;;3.80;;
6850;SDS011;3464;42.728;23.296;2022-09-04T15:20:52;11.20;;;3.33;;
6850;SDS011;3464;42.728;23.296;2022-09-04T15:23:26;10.10;;;3.90;;
6850;SDS011;3464;42.728;23.296;2022-09-04T15:26:08;11.77;;;4.17;;
6850;SDS011;3464;42.728;23.296;2022-09-04T15:28:37;10.87;;;3.87;;
6850;SDS011;3464;42.728;23.296;2022-09-04T15:31:10;10.47;;;4.03;;
6850;SDS011;3464;42.728;23.296;2022-09-04T15:36:52;9.80;;;3.63;;
6850;SDS011;3464;42.728;23.296;2022-09-04T15:39:22;13.03;;;3.97;;
6850;SDS011;3464;42.728;23.296;2022-09-04T15:41:49;13.23;;;3.90;;
6850;SDS011;3464;42.728;23.296;2022-09-04T15:44:18;11.10;;;3.93;;
6850;SDS011;3464;42.728;23.296;2022-09-04T15:46:48;11.17;;;3.97;;
6850;SDS011;3464;42.728;23.296;2022-09-04T15:49:21;12.40;;;4.70;;
6850;SDS011;3464;42.728;23.296;2022-09-04T15:52:03;9.73;;;3.87;;
6850;SDS011;3464;42.728;23.296;2022-09-04T15:54:29;14.40;;;4.40;;
6850;SDS011;3464;42.728;23.296;2022-09-04T15:56:59;10.17;;;3.87;;
6850;SDS011;3464;42.728;23.296;2022-09-04T15:59:31;9.60;;;3.80;;
6850;SDS011;3464;42.728;23.296;2022-09-04T16:02:01;12.07;;;4.80;;
6850;SDS011;3464;42.728;23.296;2022-09-04T16:04:31;10.43;;;4.00;;
6850;SDS011;3464;42.728;23.296;2022-09-04T16:07:15;12.00;;;4.20;;
6850;SDS011;3464;42.728;23.296;2022-09-04T16:09:35;9.87;;;4.10;;
6850;SDS011;3464;42.728;23.296;2022-09-04T16:12:01;13.00;;;4.17;;
6850;SDS011;3464;42.728;23.296;2022-09-04T16:14:28;9.07;;;3.67;;
6850;SDS011;3464;42.728;23.296;2022-09-04T16:16:59;11.03;;;4.00;;
6850;SDS011;3464;42.728;23.296;2022-09-04T16:19:28;9.90;;;3.73;;
6850;SDS011;3464;42.728;23.296;2022-09-04T16:22:15;10.80;;;3.83;;
6850;SDS011;3464;42.728;23.296;2022-09-04T16:24:39;11.43;;;4.73;;
6850;SDS011;3464;42.728;23.296;2022-09-04T16:27:10;10.80;;;4.80;;
6850;SDS011;3464;42.728;23.296;2022-09-04T16:29:36;10.90;;;4.00;;
6850;SDS011;3464;42.728;23.296;2022-09-04T16:32:03;10.27;;;4.50;;
6850;SDS011;3464;42.728;23.296;2022-09-04T16:34:32;11.47;;;4.33;;
6850;SDS011;3464;42.728;23.296;2022-09-04T16:37:19;11.83;;;4.90;;
6850;SDS011;3464;42.728;23.296;2022-09-04T16:39:45;10.63;;;4.60;;
6850;SDS011;3464;42.728;23.296;2022-09-04T16:42:11;10.30;;;4.50;;
6850;SDS011;3464;42.728;23.296;2022-09-04T16:45:00;10.67;;;4.07;;
6850;SDS011;3464;42.728;23.296;2022-09-04T16:47:30;10.73;;;4.33;;
6850;SDS011;3464;42.728;23.296;2022-09-04T16:50:06;12.33;;;4.70;;
6850;SDS011;3464;42.728;23.296;2022-09-04T16:52:53;11.90;;;4.13;;
6850;SDS011;3464;42.728;23.296;2022-09-04T16:55:24;13.23;;;4.20;;
6850;SDS011;3464;42.728;23.296;2022-09-04T16:57:58;13.50;;;4.67;;
6850;SDS011;3464;42.728;23.296;2022-09-04T17:00:24;11.00;;;4.23;;
6850;SDS011;3464;42.728;23.296;2022-09-04T17:02:53;10.30;;;4.70;;
6850;SDS011;3464;42.728;23.296;2022-09-04T17:06:28;15.90;;;5.10;;
6850;SDS011;3464;42.728;23.296;2022-09-04T17:08:12;12.80;;;4.73;;
6850;SDS011;3464;42.728;23.296;2022-09-04T17:10:44;11.53;;;5.60;;
6850;SDS011;3464;42.728;23.296;2022-09-04T17:13:14;13.40;;;5.20;;
6850;SDS011;3464;42.728;23.296;2022-09-04T17:15:54;12.43;;;5.63;;
6850;SDS011;3464;42.728;23.296;2022-09-04T17:18:43;13.70;;;5.47;;
6850;SDS011;3464;42.728;23.296;2022-09-04T17:21:09;12.77;;;5.77;;
6850;SDS011;3464;42.728;23.296;2022-09-04T17:23:40;19.50;;;7.90;;
6850;SDS011;3464;42.728;23.296;2022-09-04T17:26:10;68.87;;;25.43;;
6850;SDS011;3464;42.728;23.296;2022-09-04T17:28:38;38.83;;;15.70;;
6850;SDS011;3464;42.728;23.296;2022-09-04T17:31:10;25.50;;;10.27;;
6850;SDS011;3464;42.728;23.296;2022-09-04T17:33:38;17.87;;;8.20;;
6850;SDS011;3464;42.728;23.296;2022-09-04T17:36:10;15.23;;;8.13;;
6850;SDS011;3464;42.728;23.296;2022-09-04T17:41:27;15.63;;;6.73;;
6850;SDS011;3464;42.728;23.296;2022-09-04T17:43:56;12.50;;;5.23;;
6850;SDS011;3464;42.728;23.296;2022-09-04T17:46:29;15.33;;;7.63;;
6850;SDS011;3464;42.728;23.296;2022-09-04T17:48:59;12.60;;;5.93;;
6850;SDS011;3464;42.728;23.296;2022-09-04T17:51:27;13.80;;;6.77;;
6850;SDS011;3464;42.728;23.296;2022-09-04T17:53:54;12.17;;;5.97;;
6850;SDS011;3464;42.728;23.296;2022-09-04T17:56:26;13.33;;;5.97;;
6850;SDS011;3464;42.728;23.296;2022-09-04T17:58:59;14.30;;;5.80;;
6850;SDS011;3464;42.728;23.296;2022-09-04T18:01:29;11.23;;;5.50;;
6850;SDS011;3464;42.728;23.296;2022-09-04T18:04:28;11.87;;;5.63;;
6850;SDS011;3464;42.728;23.296;2022-09-04T18:07:12;12.60;;;5.27;;
6850;SDS011;3464;42.728;23.296;2022-09-04T18:10:02;12.07;;;5.40;;
6850;SDS011;3464;42.728;23.296;2022-09-04T18:12:45;11.10;;;4.50;;
6850;SDS011;3464;42.728;23.296;2022-09-04T18:15:25;11.80;;;5.30;;
6850;SDS011;3464;42.728;23.296;2022-09-04T18:17:56;11.70;;;5.60;;
6850;SDS011;3464;42.728;23.296;2022-09-04T18:20:42;10.10;;;4.47;;
6850;SDS011;3464;42.728;23.296;2022-09-04T18:25:47;11.20;;;4.83;;
6850;SDS011;3464;42.728;23.296;2022-09-04T18:28:17;13.00;;;5.03;;
6850;SDS011;3464;42.728;23.296;2022-09-04T18:30:45;12.93;;;4.90;;
6850;SDS011;3464;42.728;23.296;2022-09-04T18:33:15;10.20;;;4.60;;
6850;SDS011;3464;42.728;23.296;2022-09-04T18:35:58;12.00;;;4.70;;
6850;SDS011;3464;42.728;23.296;2022-09-04T18:38:44;10.50;;;4.43;;
6850;SDS011;3464;42.728;23.296;2022-09-04T18:41:12;11.67;;;4.50;;
6850;SDS011;3464;42.728;23.296;2022-09-04T18:43:42;10.70;;;4.87;;
6850;SDS011;3464;42.728;23.296;2022-09-04T18:46:08;9.97;;;4.37;;